createdAt,value
2022-11-17T00:00:42.687Z,94700.81
2022-11-17T00:03:09.382Z,94697.50
2022-11-17T00:05:36.302Z,94684.00
2022-11-17T00:08:03.167Z,94676.03
2022-11-17T00:10:30.594Z,94675.25
2022-11-17T00:12:57.253Z,94669.94
2022-11-17T00:15:23.979Z,94678.25
2022-11-17T00:17:50.594Z,94674.41
2022-11-17T00:20:17.735Z,94658.03
2022-11-17T00:22:44.577Z,94657.88
2022-11-17T00:25:11.202Z,94651.53
2022-11-17T00:27:37.891Z,94632.59
2022-11-17T00:30:04.411Z,94624.63
2022-11-17T00:32:34.590Z,94627.97
2022-11-17T00:37:45.631Z,94616.06
2022-11-17T00:46:24.466Z,94612.38
2022-11-17T00:54:42.951Z,94596.28
2022-11-17T00:57:10.080Z,94592.88
2022-11-17T00:59:37.138Z,94608.88
2022-11-17T01:02:04.667Z,94597.50
2022-11-17T01:04:31.785Z,94600.44
2022-11-17T01:06:58.832Z,94595.25
2022-11-17T01:09:26.555Z,94596.09
2022-11-17T01:11:53.998Z,94586.03
2022-11-17T01:14:22.491Z,94587.53
2022-11-17T01:16:49.236Z,94628.28
2022-11-17T01:19:16.056Z,94656.59
2022-11-17T01:21:44.132Z,94657.19
2022-11-17T01:24:10.969Z,94651.75
2022-11-17T01:26:37.895Z,94642.25
2022-11-17T01:29:09.481Z,94637.19
2022-11-17T01:37:39.654Z,94648.28
2022-11-17T01:40:10.532Z,94650.13
2022-11-17T01:42:38.809Z,94635.59
2022-11-17T01:45:05.606Z,94641.72
2022-11-17T01:47:32.504Z,94647.72
2022-11-17T01:49:59.214Z,94661.56
2022-11-17T01:52:25.889Z,94655.38
2022-11-17T01:54:52.607Z,94658.00
2022-11-17T01:57:19.595Z,94653.56
2022-11-17T01:59:46.348Z,94659.13
2022-11-17T02:02:13.132Z,94659.16
2022-11-17T02:04:39.856Z,94652.44
2022-11-17T02:07:08.692Z,94656.16
2022-11-17T02:09:35.345Z,94642.28
2022-11-17T02:12:02.804Z,94646.34
2022-11-17T02:14:29.336Z,94645.44
2022-11-17T02:17:08.932Z,94620.97
2022-11-17T02:20:05.357Z,94620.44
2022-11-17T02:22:32.690Z,94617.00
2022-11-17T02:24:59.306Z,94608.41
2022-11-17T02:27:26.605Z,94622.16
2022-11-17T02:29:54.671Z,94609.38
2022-11-17T02:32:21.364Z,94610.75
2022-11-17T02:34:47.908Z,94611.25
2022-11-17T02:37:14.419Z,94612.38
2022-11-17T02:39:41.177Z,94595.41
2022-11-17T02:42:07.701Z,94577.06
2022-11-17T02:44:34.599Z,94589.00
2022-11-17T02:47:01.510Z,94592.38
2022-11-17T02:49:28.397Z,94603.50
2022-11-17T02:51:56.669Z,94581.97
2022-11-17T02:54:23.261Z,94593.34
2022-11-17T02:56:50.149Z,94584.28
2022-11-17T02:59:16.769Z,94597.81
2022-11-17T03:04:37.389Z,94607.78
2022-11-17T03:07:04.307Z,94621.56
2022-11-17T03:09:31.005Z,94625.41
2022-11-17T03:11:57.637Z,94615.97
2022-11-17T03:14:24.158Z,94616.59
2022-11-17T03:16:50.736Z,94606.88
2022-11-17T03:19:17.746Z,94615.41
2022-11-17T03:21:44.650Z,94615.06
2022-11-17T03:24:11.641Z,94609.63
2022-11-17T03:26:38.122Z,94608.81
2022-11-17T03:29:05.355Z,94615.88
2022-11-17T03:31:32.042Z,94596.88
2022-11-17T03:33:59.320Z,94599.34
2022-11-17T03:36:25.954Z,94609.59
2022-11-17T03:38:54.544Z,94627.47
2022-11-17T03:50:52.927Z,94622.59
2022-11-17T04:38:15.169Z,94643.66
2022-11-17T04:40:41.860Z,94629.56
2022-11-17T04:43:08.758Z,94635.84
2022-11-17T04:45:39.623Z,94635.41
2022-11-17T04:48:06.441Z,94641.16
2022-11-17T05:39:35.014Z,94591.47
2022-11-17T05:42:02.528Z,94584.22
2022-11-17T05:47:22.662Z,94609.38
2022-11-17T05:49:51.067Z,94604.75
2022-11-17T05:52:17.763Z,94612.16
2022-11-17T05:54:44.285Z,94593.75
2022-11-17T05:57:10.909Z,94593.84
2022-11-17T05:59:38.755Z,94617.25
2022-11-17T06:02:06.186Z,94604.72
2022-11-17T06:04:35.313Z,94615.66
2022-11-17T06:07:03.470Z,94630.72
2022-11-17T06:09:31.261Z,94644.59
2022-11-17T06:12:02.573Z,94630.09
2022-11-17T06:14:34.179Z,94632.91
2022-11-17T06:17:03.236Z,94637.94
2022-11-17T06:19:34.403Z,94632.59
2022-11-17T06:22:17.091Z,94623.72
2022-11-17T06:24:43.935Z,94649.59
2022-11-17T06:27:18.258Z,94657.53
2022-11-17T06:29:45.959Z,94650.47
2022-11-17T06:32:13.343Z,94657.13
2022-11-17T06:34:40.599Z,94663.03
2022-11-17T06:37:09.380Z,94675.34
2022-11-17T06:39:36.555Z,94676.69
2022-11-17T06:42:05.430Z,94687.06
2022-11-17T06:44:34.094Z,94689.66
2022-11-17T06:47:00.809Z,94701.09
2022-11-17T06:49:32.062Z,94694.03
2022-11-17T06:52:00.859Z,94693.09
2022-11-17T06:54:29.328Z,94698.56
2022-11-17T06:56:57.375Z,94702.31
2022-11-17T06:59:25.383Z,94705.91
2022-11-17T07:07:37.818Z,94700.91
2022-11-17T07:10:08.255Z,94709.31
2022-11-17T07:12:35.858Z,94726.72
2022-11-17T07:15:04.155Z,94720.06
2022-11-17T07:17:34.697Z,94729.91
2022-11-17T07:20:01.896Z,94723.97
2022-11-17T07:22:29.416Z,94718.41
2022-11-17T07:24:56.429Z,94738.56
2022-11-17T07:27:24.528Z,94734.81
2022-11-17T07:32:34.682Z,94732.78
2022-11-17T07:35:02.758Z,94729.91
2022-11-17T07:37:32.689Z,94732.69
2022-11-17T07:40:00.597Z,94731.59
2022-11-17T07:42:28.250Z,94726.69
2022-11-17T07:44:55.777Z,94724.09
2022-11-17T07:47:23.477Z,94725.13
2022-11-17T07:49:51.628Z,94730.16
2022-11-17T07:54:59.296Z,94730.19
2022-11-17T07:57:26.383Z,94728.66
2022-11-17T07:59:57.722Z,94726.53
2022-11-17T08:05:07.573Z,94726.81
2022-11-17T08:07:35.944Z,94732.53
2022-11-17T08:10:12.496Z,94734.28
2022-11-17T08:12:40.549Z,94740.09
2022-11-17T08:15:11.627Z,94743.31
2022-11-17T08:20:21.741Z,94736.88
2022-11-17T08:22:50.451Z,94739.84
2022-11-17T08:25:17.251Z,94736.34
2022-11-17T08:27:44.388Z,94729.16
2022-11-17T08:30:11.873Z,94734.66
2022-11-17T08:32:39.468Z,94736.19
2022-11-17T08:35:06.572Z,94740.06
2022-11-17T08:37:34.969Z,94731.63
2022-11-17T08:40:01.991Z,94735.69
2022-11-17T08:42:29.006Z,94720.34
2022-11-17T08:44:57.654Z,94711.81
2022-11-17T08:47:26.154Z,94723.72
2022-11-17T08:49:53.538Z,94733.63
2022-11-17T08:52:23.500Z,94732.97
2022-11-17T08:54:54.772Z,94739.22
2022-11-17T08:57:21.656Z,94736.19
2022-11-17T08:59:48.693Z,94729.88
2022-11-17T09:02:15.785Z,94738.94
2022-11-17T09:04:43.200Z,94741.31
2022-11-17T09:07:11.390Z,94745.81
2022-11-17T09:09:39.126Z,94742.38
2022-11-17T09:12:08.410Z,94734.13
2022-11-17T09:14:35.357Z,94730.78
2022-11-17T09:17:02.173Z,94735.75
2022-11-17T09:19:31.667Z,94752.94
2022-11-17T09:22:07.255Z,94745.06
2022-11-17T09:24:34.436Z,94743.88
2022-11-17T09:27:03.394Z,94746.28
2022-11-17T09:29:30.231Z,94757.22
2022-11-17T09:32:05.502Z,94753.72
2022-11-17T09:34:39.819Z,94756.22
2022-11-17T09:37:09.875Z,94772.16
2022-11-17T09:39:38.641Z,94761.22
2022-11-17T09:42:07.500Z,94762.41
2022-11-17T09:44:38.546Z,94767.78
2022-11-17T09:47:05.307Z,94760.94
2022-11-17T09:52:16.841Z,94757.19
2022-11-17T09:54:44.307Z,94753.88
2022-11-17T09:57:15.171Z,94761.94
2022-11-17T09:59:44.380Z,94736.31
2022-11-17T10:02:11.369Z,94732.53
2022-11-17T10:04:39.160Z,94726.88
2022-11-17T10:07:06.167Z,94728.66
2022-11-17T10:09:32.846Z,94732.75
2022-11-17T10:11:59.726Z,94725.28
2022-11-17T10:14:26.912Z,94730.97
2022-11-17T10:16:54.347Z,94727.31
2022-11-17T10:19:23.111Z,94716.09
2022-11-17T10:21:52.045Z,94714.88
2022-11-17T10:24:19.135Z,94716.03
2022-11-17T10:26:45.962Z,94705.41
2022-11-17T10:29:13.122Z,94707.28
2022-11-17T10:31:40.810Z,94707.19
2022-11-17T10:34:08.199Z,94708.84
2022-11-17T10:36:35.953Z,94700.19
2022-11-17T10:39:08.624Z,94698.22
2022-11-17T10:41:42.896Z,94694.03
2022-11-17T10:44:10.262Z,94690.50
2022-11-17T10:46:46.143Z,94689.88
2022-11-17T10:49:13.700Z,94691.16
2022-11-17T10:51:41.372Z,94682.03
2022-11-17T10:54:08.382Z,94680.47
2022-11-17T10:56:36.379Z,94668.38
2022-11-17T10:59:04.149Z,94682.94
2022-11-17T11:01:31.167Z,94680.78
2022-11-17T11:03:59.003Z,94674.97
2022-11-17T11:06:26.829Z,94680.16
2022-11-17T11:08:55.250Z,94682.44
2022-11-17T11:11:23.276Z,94679.78
2022-11-17T11:13:55.165Z,94681.44
2022-11-17T11:19:15.300Z,94699.81
2022-11-17T11:21:43.460Z,94689.88
2022-11-17T11:24:11.920Z,94688.16
2022-11-17T11:26:38.625Z,94669.53
2022-11-17T11:29:05.944Z,94671.81
2022-11-17T11:31:32.966Z,94660.25
2022-11-17T11:34:03.008Z,94648.22
2022-11-17T11:36:29.817Z,94652.81
2022-11-17T11:38:57.129Z,94646.56
2022-11-17T11:41:24.592Z,94629.53
2022-11-17T11:43:52.550Z,94627.09
2022-11-17T11:46:19.312Z,94618.22
2022-11-17T11:48:45.921Z,94614.72
2022-11-17T11:51:12.697Z,94612.88
2022-11-17T11:57:00.533Z,94610.72
2022-11-17T11:59:27.302Z,94603.41
2022-11-17T12:01:53.978Z,94618.59
2022-11-17T12:04:26.087Z,94626.00
2022-11-17T12:06:57.254Z,94628.69
2022-11-17T12:09:24.903Z,94615.94
2022-11-17T12:11:51.466Z,94619.50
2022-11-17T12:14:19.418Z,94625.28
2022-11-17T12:16:48.320Z,94619.84
2022-11-17T12:19:16.893Z,94615.34
2022-11-17T12:21:43.742Z,94620.16
2022-11-17T12:24:13.383Z,94615.16
2022-11-17T12:26:40.373Z,94629.31
2022-11-17T12:29:11.227Z,94640.41
2022-11-17T12:31:39.492Z,94651.06
2022-11-17T12:34:06.305Z,94681.50
2022-11-17T12:36:35.581Z,94682.13
2022-11-17T12:39:02.900Z,94679.31
2022-11-17T12:41:32.392Z,94655.97
2022-11-17T12:44:00.276Z,94651.50
2022-11-17T12:46:29.019Z,94648.97
2022-11-17T12:49:00.119Z,94632.47
2022-11-17T12:51:34.593Z,94634.72
2022-11-17T12:54:03.810Z,94638.34
2022-11-17T12:56:31.480Z,94649.94
2022-11-17T12:59:00.280Z,94663.44
2022-11-17T13:01:28.118Z,94678.66
2022-11-17T13:03:56.886Z,94647.19
2022-11-17T13:06:35.595Z,94652.38
2022-11-17T13:09:04.730Z,94658.78
2022-11-17T13:14:47.562Z,94647.84
2022-11-17T13:17:15.106Z,94639.66
2022-11-17T13:19:43.257Z,94638.97
2022-11-17T13:22:09.988Z,94637.88
2022-11-17T13:24:39.224Z,94639.81
2022-11-17T13:27:05.887Z,94637.09
2022-11-17T13:29:32.921Z,94632.72
2022-11-17T13:31:59.869Z,94632.25
2022-11-17T13:34:27.057Z,94631.19
2022-11-17T13:36:53.952Z,94631.38
2022-11-17T13:39:27.440Z,94631.59
2022-11-17T13:41:56.633Z,94629.84
2022-11-17T13:44:24.479Z,94625.34
2022-11-17T13:46:52.550Z,94617.81
2022-11-17T13:49:22.579Z,94619.56
2022-11-17T13:51:51.334Z,94608.09
2022-11-17T13:54:18.564Z,94606.84
2022-11-17T13:56:46.469Z,94611.22
2022-11-17T13:59:18.049Z,94608.09
2022-11-17T14:01:45.082Z,94605.38
2022-11-17T14:04:19.373Z,94604.41
2022-11-17T14:06:47.749Z,94587.63
2022-11-17T14:09:21.781Z,94580.34
2022-11-17T14:11:49.482Z,94580.00
2022-11-17T14:14:16.608Z,94581.28
2022-11-17T14:16:43.552Z,94567.97
2022-11-17T14:19:15.852Z,94567.19
2022-11-17T14:21:51.066Z,94555.50
2022-11-17T14:24:19.208Z,94549.13
2022-11-17T14:26:46.607Z,94547.13
2022-11-17T14:29:18.295Z,94543.06
2022-11-17T14:31:45.020Z,94541.56
2022-11-17T14:34:17.597Z,94532.00
2022-11-17T14:36:57.776Z,94534.94
2022-11-17T14:39:34.553Z,94532.06
2022-11-17T14:42:02.233Z,94528.94
2022-11-17T14:44:30.254Z,94523.44
2022-11-17T14:46:57.945Z,94514.97
2022-11-17T14:49:24.835Z,94520.00
2022-11-17T14:51:51.962Z,94522.81
2022-11-17T14:54:19.069Z,94505.09
2022-11-17T14:56:52.453Z,94504.31
2022-11-17T14:59:21.680Z,94490.75
2022-11-17T15:01:48.809Z,94489.13
2022-11-17T15:04:48.892Z,94487.91
2022-11-17T15:07:07.349Z,94477.78
2022-11-17T15:09:37.791Z,94473.38
2022-11-17T15:12:04.847Z,94474.03
2022-11-17T15:14:32.223Z,94465.19
2022-11-17T15:17:00.010Z,94466.66
2022-11-17T15:21:59.429Z,94455.91
2022-11-17T15:24:26.179Z,94442.06
2022-11-17T15:26:54.785Z,94440.72
2022-11-17T15:29:21.519Z,94437.19
2022-11-17T15:31:49.000Z,94432.38
2022-11-17T15:37:11.735Z,94432.41
2022-11-17T15:39:40.824Z,94432.94
2022-11-17T15:42:11.452Z,94426.47
2022-11-17T15:44:38.269Z,94429.28
2022-11-17T15:47:12.534Z,94422.66
2022-11-17T15:49:39.287Z,94413.34
2022-11-17T15:52:06.995Z,94405.53
2022-11-17T15:54:33.703Z,94410.91
2022-11-17T15:57:06.210Z,94401.63
2022-11-17T15:59:34.200Z,94404.94
2022-11-17T16:02:01.145Z,94417.41
2022-11-17T16:04:29.858Z,94406.75
2022-11-17T16:06:57.832Z,94405.72
2022-11-17T16:09:24.714Z,94400.56
2022-11-17T16:11:52.551Z,94395.41
2022-11-17T16:14:29.139Z,94402.03
2022-11-17T16:16:56.322Z,94408.19
2022-11-17T16:19:24.105Z,94403.59
2022-11-17T16:21:52.608Z,94411.56
2022-11-17T16:24:21.936Z,94408.91
2022-11-17T16:26:49.321Z,94407.50
2022-11-17T16:29:16.076Z,94412.53
2022-11-17T16:31:49.789Z,94407.22
2022-11-17T16:34:22.344Z,94411.31
2022-11-17T16:36:59.888Z,94404.53
2022-11-17T16:39:35.623Z,94408.13
2022-11-17T16:42:03.313Z,94400.72
2022-11-17T16:44:30.235Z,94403.06
2022-11-17T16:46:58.339Z,94410.00
2022-11-17T16:52:08.945Z,94419.59
2022-11-17T16:54:36.020Z,94430.13
2022-11-17T16:57:04.629Z,94425.50
2022-11-17T16:59:32.032Z,94414.91
2022-11-17T17:02:01.818Z,94432.22
2022-11-17T17:04:35.809Z,94424.28
2022-11-17T17:07:02.957Z,94432.25
2022-11-17T17:09:30.180Z,94439.25
2022-11-17T17:11:57.012Z,94434.16
2022-11-17T17:14:23.794Z,94443.09
2022-11-17T17:16:50.669Z,94452.75
2022-11-17T17:19:17.549Z,94455.88
2022-11-17T17:21:44.500Z,94452.78
2022-11-17T17:24:12.381Z,94469.66
2022-11-17T17:26:39.253Z,94470.16
2022-11-17T17:29:09.164Z,94469.91
2022-11-17T17:31:37.240Z,94483.66
2022-11-17T17:36:57.119Z,94488.38
2022-11-17T17:39:24.157Z,94495.91
2022-11-17T17:41:54.470Z,94493.31
2022-11-17T17:44:22.265Z,94505.84
2022-11-17T17:46:53.956Z,94485.59
2022-11-17T17:49:32.973Z,94481.66
2022-11-17T17:52:00.589Z,94491.09
2022-11-17T17:54:31.927Z,94497.38
2022-11-17T17:57:08.642Z,94484.03
2022-11-17T17:59:35.868Z,94490.41
2022-11-17T18:02:05.872Z,94489.91
2022-11-17T18:07:25.438Z,94500.94
2022-11-17T18:09:52.232Z,94515.97
2022-11-17T18:12:19.168Z,94514.75
2022-11-17T18:14:46.448Z,94538.22
2022-11-17T18:17:13.469Z,94556.38
2022-11-17T18:19:41.870Z,94548.88
2022-11-17T18:22:09.093Z,94583.75
2022-11-17T18:24:36.971Z,94583.34
2022-11-17T18:27:03.855Z,94595.88
2022-11-17T18:29:30.856Z,94603.94
2022-11-17T18:32:01.981Z,94617.25
2022-11-17T18:34:28.976Z,94640.16
2022-11-17T18:36:58.060Z,94641.25
2022-11-17T18:39:25.621Z,94637.41
2022-11-17T18:41:52.418Z,94645.97
2022-11-17T18:44:19.089Z,94647.97
2022-11-17T18:46:48.095Z,94659.06
2022-11-17T18:52:17.632Z,94673.25
2022-11-17T18:54:48.508Z,94663.78
2022-11-17T18:57:18.995Z,94658.84
2022-11-17T18:59:45.952Z,94663.38
2022-11-17T19:02:16.618Z,94674.56
2022-11-17T19:04:45.307Z,94666.13
2022-11-17T19:07:13.910Z,94649.88
2022-11-17T19:09:40.447Z,94654.34
2022-11-17T19:12:06.976Z,94645.72
2022-11-17T19:14:33.434Z,94642.50
2022-11-17T19:17:00.949Z,94659.22
2022-11-17T19:19:34.653Z,94663.94
2022-11-17T19:22:01.460Z,94661.59
2022-11-17T19:24:36.963Z,94659.00
2022-11-17T19:27:03.731Z,94650.94
2022-11-17T19:29:31.322Z,94652.44
2022-11-17T19:31:58.618Z,94657.69
2022-11-17T19:34:25.913Z,94652.34
2022-11-17T19:36:56.197Z,94656.97
2022-11-17T19:39:23.010Z,94662.47
2022-11-17T19:41:50.494Z,94652.72
2022-11-17T19:44:19.082Z,94645.63
2022-11-17T19:46:45.516Z,94648.22
2022-11-17T19:49:17.708Z,94649.56
2022-11-17T21:40:16.496Z,94623.16
2022-11-17T21:42:43.912Z,94630.00
2022-11-17T21:45:12.693Z,94629.34
2022-11-17T21:47:41.219Z,94629.66
2022-11-17T21:50:10.103Z,94633.41
2022-11-17T21:52:37.057Z,94630.84
2022-11-17T21:55:03.646Z,94606.66
2022-11-17T21:57:30.511Z,94609.28
2022-11-17T21:59:57.500Z,94605.59
2022-11-17T22:02:24.162Z,94610.94
2022-11-17T22:04:51.747Z,94618.94
2022-11-17T22:07:18.271Z,94631.25
2022-11-17T22:09:46.192Z,94632.56
2022-11-17T22:12:12.821Z,94639.44
2022-11-17T22:14:39.710Z,94634.56
2022-11-17T22:17:06.704Z,94633.78
2022-11-17T22:19:33.448Z,94637.25
2022-11-17T22:22:02.001Z,94627.22
2022-11-17T22:24:28.669Z,94615.66
2022-11-17T22:26:55.669Z,94608.50
2022-11-17T22:29:22.446Z,94615.25
2022-11-17T22:31:49.428Z,94618.59
2022-11-17T22:37:15.003Z,94604.75
2022-11-17T22:39:43.466Z,94614.41
2022-11-17T22:42:15.646Z,94617.56
2022-11-17T22:44:42.596Z,94631.78
2022-11-17T22:47:09.438Z,94636.81
2022-11-17T22:49:37.428Z,94638.94
2022-11-17T22:52:04.837Z,94630.13
2022-11-17T22:54:33.363Z,94633.09
2022-11-17T22:57:00.740Z,94644.97
2022-11-17T22:59:27.593Z,94644.34
2022-11-17T23:01:54.678Z,94650.63
2022-11-17T23:04:21.652Z,94660.97
2022-11-17T23:06:48.397Z,94670.75
2022-11-17T23:09:15.588Z,94670.81
2022-11-17T23:11:42.935Z,94669.97
2022-11-17T23:14:09.641Z,94672.03
2022-11-17T23:16:36.860Z,94685.97
2022-11-17T23:19:07.231Z,94682.47
2022-11-17T23:21:34.075Z,94694.03
2022-11-17T23:24:01.663Z,94696.59
2022-11-17T23:26:28.394Z,94696.34
2022-11-17T23:28:55.120Z,94728.06
2022-11-17T23:31:22.139Z,94718.88
2022-11-17T23:33:49.918Z,94721.84
2022-11-17T23:36:16.679Z,94734.94
2022-11-17T23:38:43.569Z,94749.25
2022-11-17T23:41:12.603Z,94741.06
2022-11-17T23:43:42.956Z,94740.84
2022-11-17T23:46:10.456Z,94741.28
2022-11-17T23:48:38.006Z,94740.81
2022-11-17T23:51:06.015Z,94732.25
2022-11-17T23:56:01.841Z,94723.97
2022-11-17T23:58:28.591Z,94709.69
